createdAt,value
2022-09-02T00:01:38.113Z,101841.72
2022-09-02T00:04:06.624Z,101834.94
2022-09-02T00:06:32.498Z,101842.34
2022-09-02T00:08:56.875Z,101838.03
2022-09-02T00:11:27.466Z,101840.13
2022-09-02T00:13:53.172Z,101833.16
2022-09-02T00:16:17.510Z,101835.44
2022-09-02T00:18:45.756Z,101830.13
2022-09-02T00:21:13.626Z,101825.84
2022-09-02T00:23:39.143Z,101828.31
2022-09-02T00:26:02.870Z,101820.44
2022-09-02T00:28:26.676Z,101820.59
2022-09-02T00:30:50.346Z,101821.47
2022-09-02T00:33:16.105Z,101826.16
2022-09-02T00:35:42.659Z,101827.63
2022-09-02T00:38:07.086Z,101821.13
2022-09-02T00:40:31.426Z,101817.22
2022-09-02T00:42:56.259Z,101819.72
2022-09-02T00:45:21.585Z,101817.63
2022-09-02T00:47:46.139Z,101814.66
2022-09-02T00:50:15.244Z,101824.75
2022-09-02T00:52:45.155Z,101820.69
2022-09-02T00:55:16.744Z,101821.31
2022-09-02T00:57:45.199Z,101814.69
2022-09-02T01:00:16.650Z,101818.84
2022-09-02T01:02:43.187Z,101813.47
2022-09-02T01:05:10.880Z,101809.41
2022-09-02T01:07:40.043Z,101809.19
2022-09-02T01:10:06.572Z,101818.13
2022-09-02T01:12:32.455Z,101810.78
2022-09-02T01:14:56.467Z,101811.00
2022-09-02T01:17:21.149Z,101805.09
2022-09-02T01:19:50.267Z,101802.28
2022-09-02T01:22:23.594Z,101810.38
2022-09-02T01:24:47.323Z,101808.19
2022-09-02T01:27:11.259Z,101804.88
2022-09-02T01:29:35.003Z,101810.38
2022-09-02T01:31:59.923Z,101800.91
2022-09-02T01:34:24.730Z,101799.97
2022-09-02T01:36:49.211Z,101796.38
2022-09-02T01:39:15.416Z,101796.75
2022-09-02T01:41:40.048Z,101796.13
2022-09-02T01:44:04.997Z,101792.97
2022-09-02T01:46:28.848Z,101804.63
2022-09-02T01:48:52.882Z,101800.31
2022-09-02T01:51:19.459Z,101799.97
2022-09-02T01:53:43.431Z,101810.50
2022-09-02T01:56:08.672Z,101801.28
2022-09-02T01:58:32.329Z,101802.03
2022-09-02T02:00:56.139Z,101799.22
2022-09-02T02:03:20.516Z,101804.13
2022-09-02T02:05:45.017Z,101788.88
2022-09-02T02:08:12.312Z,101786.09
2022-09-02T02:10:36.051Z,101793.44
2022-09-02T02:13:02.243Z,101790.00
2022-09-02T02:17:52.282Z,101787.66
2022-09-02T02:20:21.708Z,101784.25
2022-09-02T02:22:45.959Z,101781.75
2022-09-02T02:25:11.134Z,101789.03
2022-09-02T02:27:35.315Z,101792.47
2022-09-02T02:30:06.715Z,101780.78
2022-09-02T02:32:32.650Z,101788.88
2022-09-02T02:34:57.746Z,101782.63
2022-09-02T02:37:25.549Z,101782.16
2022-09-02T02:39:49.940Z,101787.69
2022-09-02T02:42:13.851Z,101788.16
2022-09-02T02:44:39.785Z,101785.56
2022-09-02T02:47:05.095Z,101783.22
2022-09-02T02:49:29.523Z,101779.56
2022-09-02T02:51:53.892Z,101793.06
2022-09-02T02:54:18.583Z,101786.91
2022-09-02T02:56:42.994Z,101791.19
2022-09-02T02:59:06.916Z,101785.53
2022-09-02T03:01:32.737Z,101789.47
2022-09-02T03:03:58.038Z,101782.22
2022-09-02T03:06:23.876Z,101781.50
2022-09-02T03:08:53.539Z,101780.53
2022-09-02T03:11:18.155Z,101783.94
2022-09-02T03:13:42.093Z,101781.50
2022-09-02T03:16:06.994Z,101783.31
2022-09-02T03:18:30.870Z,101785.41
2022-09-02T03:20:56.749Z,101769.69
2022-09-02T03:23:20.777Z,101778.16
2022-09-02T03:25:47.757Z,101779.25
2022-09-02T03:28:34.106Z,101778.28
2022-09-02T03:30:59.872Z,101773.97
2022-09-02T03:33:24.326Z,101771.28
2022-09-02T03:35:48.556Z,101771.97
2022-09-02T03:38:14.690Z,101771.38
2022-09-02T03:40:41.979Z,101778.75
2022-09-02T03:43:05.768Z,101773.53
2022-09-02T03:45:30.884Z,101768.25
2022-09-02T03:47:59.330Z,101764.44
2022-09-02T03:50:31.360Z,101765.91
2022-09-02T03:52:55.951Z,101764.81
2022-09-02T03:55:21.415Z,101761.75
2022-09-02T03:57:45.371Z,101770.84
2022-09-02T04:00:13.512Z,101766.38
2022-09-02T04:02:41.974Z,101769.34
2022-09-02T04:05:13.711Z,101774.19
2022-09-02T04:07:41.175Z,101770.06
2022-09-02T04:10:09.039Z,101772.88
2022-09-02T04:12:36.082Z,101769.91
2022-09-02T04:15:00.002Z,101783.88
2022-09-02T04:17:23.656Z,101768.09
2022-09-02T04:19:47.416Z,101777.91
2022-09-02T04:22:11.136Z,101778.97
2022-09-02T04:24:35.381Z,101772.75
2022-09-02T04:27:03.842Z,101776.19
2022-09-02T04:29:32.007Z,101775.56
2022-09-02T04:31:56.864Z,101778.50
2022-09-02T04:34:20.977Z,101783.88
2022-09-02T04:36:46.588Z,101776.25
2022-09-02T04:39:10.572Z,101775.41
2022-09-02T04:41:35.751Z,101777.44
2022-09-02T04:44:02.827Z,101773.84
2022-09-02T04:46:34.716Z,101782.75
2022-09-02T04:49:01.259Z,101780.34
2022-09-02T04:51:27.715Z,101774.47
2022-09-02T04:53:56.031Z,101787.59
2022-09-02T04:56:23.927Z,101781.31
2022-09-02T04:58:50.327Z,101779.13
2022-09-02T05:01:21.131Z,101784.06
2022-09-02T05:03:47.913Z,101784.50
2022-09-02T05:06:14.634Z,101789.22
2022-09-02T05:08:38.840Z,101786.25
2022-09-02T05:11:07.238Z,101783.53
2022-09-02T05:13:31.616Z,101779.69
2022-09-02T05:15:56.118Z,101785.31
2022-09-02T05:18:20.524Z,101784.22
2022-09-02T05:20:46.024Z,101788.31
2022-09-02T05:23:11.399Z,101790.59
2022-09-02T05:25:38.745Z,101791.97
2022-09-02T05:28:02.612Z,101794.41
2022-09-02T05:30:26.551Z,101790.75
2022-09-02T05:32:50.354Z,101787.69
2022-09-02T05:35:15.063Z,101796.94
2022-09-02T05:37:41.672Z,101792.50
2022-09-02T05:40:08.608Z,101790.53
2022-09-02T05:42:35.610Z,101795.13
2022-09-02T05:44:59.602Z,101792.53
2022-09-02T05:47:25.115Z,101796.25
2022-09-02T05:49:49.486Z,101790.72
2022-09-02T05:52:15.066Z,101788.16
2022-09-02T05:54:46.656Z,101794.78
2022-09-02T05:57:19.745Z,101785.56
2022-09-02T06:00:01.655Z,101794.56
2022-09-02T06:02:37.378Z,101788.66
2022-09-02T06:05:01.356Z,101793.75
2022-09-02T06:07:26.807Z,101791.19
2022-09-02T06:09:55.336Z,101792.25
2022-09-02T06:12:21.891Z,101792.53
2022-09-02T06:14:47.616Z,101787.31
2022-09-02T06:17:12.112Z,101794.50
2022-09-02T06:19:42.963Z,101794.00
2022-09-02T06:22:07.828Z,101800.75
2022-09-02T06:24:34.866Z,101798.28
2022-09-02T06:27:07.296Z,101797.66
2022-09-02T06:29:34.945Z,101798.94
2022-09-02T06:31:58.888Z,101798.06
2022-09-02T06:34:27.266Z,101794.84
2022-09-02T06:36:52.899Z,101791.50
2022-09-02T06:39:20.695Z,101794.13
2022-09-02T06:41:48.102Z,101794.13
2022-09-02T06:44:16.132Z,101798.66
2022-09-02T06:46:44.429Z,101795.72
2022-09-02T06:49:11.690Z,101794.00
2022-09-02T06:51:39.997Z,101791.22
2022-09-02T06:54:06.313Z,101787.41
2022-09-02T06:56:32.929Z,101789.75
2022-09-02T06:58:57.770Z,101790.03
2022-09-02T07:01:36.977Z,101782.81
2022-09-02T07:04:18.811Z,101782.25
2022-09-02T07:06:46.195Z,101772.28
2022-09-02T07:09:13.112Z,101779.88
2022-09-02T07:11:38.123Z,101776.25
2022-09-02T07:14:02.371Z,101780.94
2022-09-02T07:16:27.390Z,101780.25
2022-09-02T07:18:54.612Z,101771.97
2022-09-02T07:21:19.115Z,101782.56
2022-09-02T07:23:43.730Z,101784.97
2022-09-02T07:26:13.836Z,101786.56
2022-09-02T07:28:39.808Z,101784.97
2022-09-02T07:31:04.161Z,101789.84
2022-09-02T07:33:27.907Z,101789.75
2022-09-02T07:35:53.399Z,101781.91
2022-09-02T07:38:19.223Z,101782.63
2022-09-02T07:40:44.342Z,101785.25
2022-09-02T07:43:11.063Z,101785.13
2022-09-02T07:45:37.736Z,101783.19
2022-09-02T07:48:02.395Z,101782.66
2022-09-02T07:50:27.899Z,101783.50
2022-09-02T07:52:55.247Z,101781.31
2022-09-02T07:55:18.961Z,101781.78
2022-09-02T07:57:42.869Z,101783.00
2022-09-02T08:00:08.763Z,101784.09
2022-09-02T08:02:37.713Z,101786.44
2022-09-02T08:05:02.580Z,101779.28
2022-09-02T08:07:26.272Z,101780.03
2022-09-02T08:09:51.665Z,101779.56
2022-09-02T08:12:17.781Z,101777.72
2022-09-02T08:14:44.195Z,101782.31
2022-09-02T08:17:08.514Z,101781.22
2022-09-02T08:19:32.187Z,101783.06
2022-09-02T08:21:56.667Z,101777.41
2022-09-02T08:24:20.479Z,101775.97
2022-09-02T08:26:45.979Z,101777.03
2022-09-02T08:29:10.661Z,101779.41
2022-09-02T08:31:35.316Z,101772.56
2022-09-02T08:33:58.983Z,101774.94
2022-09-02T08:36:22.594Z,101773.50
2022-09-02T08:38:46.256Z,101777.25
2022-09-02T08:41:23.239Z,101772.16
2022-09-02T08:43:50.242Z,101777.94
2022-09-02T08:46:18.135Z,101767.47
2022-09-02T08:48:47.688Z,101763.16
2022-09-02T08:51:18.264Z,101768.66
2022-09-02T08:53:52.676Z,101761.38
2022-09-02T08:56:19.112Z,101761.22
2022-09-02T08:58:47.105Z,101759.63
2022-09-02T09:01:24.654Z,101760.59
2022-09-02T09:04:09.997Z,101755.66
2022-09-02T09:06:45.874Z,101754.34
2022-09-02T09:09:19.361Z,101745.31
2022-09-02T09:11:54.513Z,101753.69
2022-09-02T09:14:28.535Z,101752.88
2022-09-02T09:16:59.826Z,101748.94
2022-09-02T09:19:33.851Z,101759.50
2022-09-02T09:22:03.283Z,101741.66
2022-09-02T09:24:33.531Z,101744.47
2022-09-02T09:26:57.403Z,101740.47
2022-09-02T09:29:21.035Z,101744.72
2022-09-02T09:31:48.178Z,101739.59
2022-09-02T09:34:14.578Z,101736.19
2022-09-02T09:36:53.887Z,101734.31
2022-09-02T09:39:27.512Z,101727.06
2022-09-02T09:41:52.324Z,101725.59
2022-09-02T09:44:38.586Z,101734.44
2022-09-02T09:47:04.307Z,101728.75
2022-09-02T09:49:29.427Z,101729.94
2022-09-02T09:51:56.676Z,101732.00
2022-09-02T09:54:20.404Z,101724.97
2022-09-02T09:56:44.097Z,101719.03
2022-09-02T09:59:11.008Z,101711.56
2022-09-02T10:01:35.518Z,101713.22
2022-09-02T10:04:02.055Z,101712.63
2022-09-02T10:06:39.815Z,101715.78
2022-09-02T10:09:06.009Z,101714.63
2022-09-02T10:11:31.631Z,101709.69
2022-09-02T10:14:01.647Z,101701.59
2022-09-02T10:16:43.083Z,101696.72
2022-09-02T10:19:19.690Z,101690.44
2022-09-02T10:22:23.658Z,101700.22
2022-09-02T10:25:20.516Z,101698.66
2022-09-02T10:27:57.126Z,101694.94
2022-09-02T10:30:23.051Z,101694.31
2022-09-02T10:33:24.019Z,101689.22
2022-09-02T10:35:50.539Z,101685.25
2022-09-02T10:38:40.404Z,101683.28
2022-09-02T10:41:17.973Z,101681.72
2022-09-02T10:44:04.291Z,101689.97
2022-09-02T10:46:35.907Z,101684.41
2022-09-02T10:49:10.837Z,101684.41
2022-09-02T10:51:45.151Z,101688.00
2022-09-02T10:54:31.103Z,101681.66
2022-09-02T10:57:03.398Z,101680.44
2022-09-02T10:59:34.347Z,101683.31
2022-09-02T11:02:04.292Z,101674.81
2022-09-02T11:04:43.334Z,101673.13
2022-09-02T11:07:10.907Z,101679.72
2022-09-02T11:09:40.479Z,101678.31
2022-09-02T11:12:12.230Z,101673.22
2022-09-02T11:14:49.075Z,101663.69
2022-09-02T11:17:21.519Z,101668.25
2022-09-02T11:19:51.449Z,101674.16
2022-09-02T11:22:27.687Z,101668.78
2022-09-02T11:24:57.786Z,101666.47
2022-09-02T11:27:42.208Z,101664.63
2022-09-02T11:30:11.534Z,101660.59
2022-09-02T11:32:42.600Z,101665.19
2022-09-02T11:35:12.338Z,101662.81
2022-09-02T11:37:41.559Z,101657.91
2022-09-02T11:40:33.203Z,101657.81
2022-09-02T11:43:26.951Z,101660.41
2022-09-02T11:46:47.293Z,101667.06
2022-09-02T11:49:48.068Z,101650.31
2022-09-02T11:52:26.868Z,101657.03
2022-09-02T11:55:02.642Z,101653.50
2022-09-02T11:57:28.628Z,101655.59
2022-09-02T12:00:29.242Z,101653.03
2022-09-02T12:03:37.806Z,101645.47
2022-09-02T12:06:12.289Z,101642.06
2022-09-02T12:09:12.285Z,101632.91
2022-09-02T12:11:45.452Z,101626.88
2022-09-02T12:14:13.727Z,101627.25
2022-09-02T12:16:43.076Z,101623.94
2022-09-02T12:19:41.946Z,101617.13
2022-09-02T12:22:38.812Z,101613.22
2022-09-02T12:25:03.456Z,101610.44
2022-09-02T12:27:36.755Z,101603.41
2022-09-02T12:30:02.103Z,101606.31
2022-09-02T12:33:05.775Z,101603.75
2022-09-02T12:35:37.372Z,101605.91
2022-09-02T12:38:31.691Z,101602.75
2022-09-02T12:41:24.507Z,101604.28
2022-09-02T12:44:25.599Z,101601.75
2022-09-02T12:47:01.853Z,101595.78
2022-09-02T12:49:49.672Z,101592.81
2022-09-02T12:52:42.098Z,101586.38
2022-09-02T12:55:11.987Z,101581.38
2022-09-02T12:57:42.857Z,101592.56
2022-09-02T13:00:07.859Z,101585.63
2022-09-02T13:02:51.132Z,101587.13
2022-09-02T13:05:28.301Z,101585.25
2022-09-02T13:08:34.567Z,101584.13
2022-09-02T13:11:37.636Z,101583.38
2022-09-02T13:14:37.339Z,101572.56
2022-09-02T13:17:36.047Z,101579.13
2022-09-02T13:21:10.010Z,101574.94
2022-09-02T13:24:19.324Z,101570.50
2022-09-02T13:27:28.965Z,101578.38
2022-09-02T13:30:15.953Z,101574.47
2022-09-02T13:32:40.426Z,101569.38
2022-09-02T13:35:08.207Z,101563.06
2022-09-02T13:37:37.913Z,101564.47
2022-09-02T13:40:07.534Z,101567.69
2022-09-02T13:42:33.067Z,101557.72
2022-09-02T13:45:15.527Z,101545.56
2022-09-02T13:47:42.369Z,101548.78
2022-09-02T13:50:08.828Z,101555.50
2022-09-02T13:53:20.008Z,101542.53
2022-09-02T13:55:20.658Z,101547.06
2022-09-02T13:57:55.583Z,101547.72
2022-09-02T14:00:31.241Z,101542.81
2022-09-02T14:03:03.042Z,101536.66
2022-09-02T14:05:27.975Z,101542.22
2022-09-02T14:07:57.338Z,101529.13
2022-09-02T14:10:24.340Z,101521.25
2022-09-02T14:12:49.034Z,101525.50
2022-09-02T14:15:17.093Z,101520.91
2022-09-02T14:17:40.846Z,101516.88
2022-09-02T14:20:19.159Z,101521.16
2022-09-02T14:22:43.480Z,101517.28
2022-09-02T14:25:15.453Z,101519.19
2022-09-02T14:27:40.162Z,101518.59
2022-09-02T14:30:09.291Z,101515.91
2022-09-02T14:32:36.302Z,101520.63
2022-09-02T14:35:22.684Z,101520.19
2022-09-02T14:37:53.090Z,101524.66
2022-09-02T14:40:19.766Z,101517.31
2022-09-02T14:42:52.635Z,101518.59
2022-09-02T14:45:28.986Z,101513.78
2022-09-02T14:47:52.839Z,101518.06
2022-09-02T14:50:27.866Z,101512.38
2022-09-02T14:52:57.498Z,101516.91
2022-09-02T14:55:52.741Z,101512.38
2022-09-02T14:58:17.802Z,101510.50
2022-09-02T15:00:41.687Z,101505.66
2022-09-02T15:03:05.743Z,101508.22
2022-09-02T15:05:29.431Z,101508.03
2022-09-02T15:07:53.251Z,101506.53
2022-09-02T15:10:17.015Z,101511.72
2022-09-02T15:12:49.503Z,101501.41
2022-09-02T15:15:13.217Z,101497.31
2022-09-02T15:17:37.063Z,101506.81
2022-09-02T15:20:00.766Z,101498.97
2022-09-02T15:22:25.148Z,101504.69
2022-09-02T15:24:50.630Z,101498.59
2022-09-02T15:27:14.955Z,101489.41
2022-09-02T15:29:42.387Z,101492.09
2022-09-02T15:32:06.279Z,101492.75
2022-09-02T15:34:29.937Z,101493.69
2022-09-02T15:36:55.057Z,101494.75
2022-09-02T15:39:19.487Z,101496.72
2022-09-02T15:41:45.505Z,101487.00
2022-09-02T15:44:09.382Z,101484.69
2022-09-02T15:46:36.993Z,101485.06
2022-09-02T15:49:04.229Z,101483.19
2022-09-02T15:51:27.842Z,101485.94
2022-09-02T15:53:57.054Z,101481.81
2022-09-02T15:56:23.159Z,101486.53
2022-09-02T15:58:47.281Z,101488.88
2022-09-02T16:01:10.981Z,101481.03
2022-09-02T16:03:37.083Z,101489.28
2022-09-02T16:06:03.319Z,101483.22
2022-09-02T16:08:26.950Z,101477.44
2022-09-02T16:10:51.383Z,101480.00
2022-09-02T16:13:15.096Z,101479.31
2022-09-02T16:15:38.754Z,101484.50
2022-09-02T16:18:02.429Z,101483.59
2022-09-02T16:20:27.471Z,101483.66
2022-09-02T16:22:51.136Z,101482.25
2022-09-02T16:25:14.835Z,101484.16
2022-09-02T16:27:53.239Z,101486.59
2022-09-02T16:30:17.456Z,101481.56
2022-09-02T16:32:41.159Z,101478.44
2022-09-02T16:35:05.330Z,101482.31
2022-09-02T16:37:30.605Z,101478.38
2022-09-02T16:39:54.406Z,101472.81
2022-09-02T16:42:18.111Z,101467.75
2022-09-02T16:44:41.804Z,101472.94
2022-09-02T16:47:05.831Z,101474.41
2022-09-02T16:49:29.499Z,101470.84
2022-09-02T16:51:58.218Z,101472.34
2022-09-02T16:54:30.914Z,101468.47
2022-09-02T16:56:56.095Z,101464.75
2022-09-02T16:59:20.395Z,101465.84
2022-09-02T17:01:44.129Z,101459.75
2022-09-02T17:04:08.995Z,101459.53
2022-09-02T17:06:33.730Z,101458.44
2022-09-02T17:08:58.112Z,101461.53
2022-09-02T17:11:26.594Z,101460.56
2022-09-02T17:13:52.803Z,101459.53
2022-09-02T17:16:17.102Z,101456.38
2022-09-02T17:18:40.792Z,101459.28
2022-09-02T17:21:25.923Z,101462.06
2022-09-02T17:23:50.037Z,101465.53
2022-09-02T17:26:14.727Z,101468.25
2022-09-02T17:28:47.369Z,101471.16
2022-09-02T17:31:21.119Z,101472.50
2022-09-02T17:33:44.851Z,101472.50
2022-09-02T17:36:09.135Z,101478.47
2022-09-02T17:38:32.799Z,101473.19
2022-09-02T17:41:13.791Z,101472.00
2022-09-02T17:43:38.437Z,101468.78
2022-09-02T17:46:08.538Z,101465.88
2022-09-02T17:48:41.743Z,101482.06
2022-09-02T17:51:09.190Z,101477.66
2022-09-02T17:53:33.623Z,101470.66
2022-09-02T17:56:06.807Z,101472.53
2022-09-02T17:58:34.860Z,101477.63
2022-09-02T18:01:01.404Z,101472.88
2022-09-02T18:03:41.051Z,101472.81
2022-09-02T18:06:12.975Z,101474.03
2022-09-02T18:08:46.946Z,101475.53
2022-09-02T18:11:10.696Z,101477.72
2022-09-02T18:13:44.407Z,101485.50
2022-09-02T18:16:32.254Z,101488.47
2022-09-02T18:19:14.114Z,101483.69
2022-09-02T18:21:59.078Z,101482.34
2022-09-02T18:24:40.966Z,101484.88
2022-09-02T18:27:12.733Z,101491.50
2022-09-02T18:29:59.095Z,101494.09
2022-09-02T18:32:44.418Z,101493.63
2022-09-02T18:35:22.744Z,101499.44
2022-09-02T18:38:02.447Z,101498.19
2022-09-02T18:40:37.872Z,101505.69
2022-09-02T18:43:15.713Z,101498.88
2022-09-02T18:45:49.351Z,101509.41
2022-09-02T18:48:17.029Z,101510.34
2022-09-02T18:50:51.571Z,101504.81
2022-09-02T18:53:21.597Z,101511.03
2022-09-02T18:55:47.084Z,101516.84
2022-09-02T18:58:19.963Z,101519.16
2022-09-02T19:00:49.545Z,101517.97
2022-09-02T19:03:13.239Z,101517.28
2022-09-02T19:05:37.493Z,101513.47
2022-09-02T19:08:23.031Z,101519.50
2022-09-02T19:10:47.220Z,101518.00
2022-09-02T19:13:10.960Z,101516.91
2022-09-02T19:15:34.648Z,101525.81
2022-09-02T19:18:00.443Z,101527.09
2022-09-02T19:20:24.178Z,101527.56
2022-09-02T19:22:53.953Z,101524.03
2022-09-02T19:25:24.411Z,101529.91
2022-09-02T19:27:52.094Z,101536.22
2022-09-02T19:30:19.243Z,101536.81
2022-09-02T19:32:47.910Z,101531.09
2022-09-02T19:35:16.680Z,101540.84
2022-09-02T19:37:44.777Z,101543.03
2022-09-02T19:40:11.562Z,101535.69
2022-09-02T19:42:36.653Z,101541.47
2022-09-02T19:45:00.740Z,101533.88
2022-09-02T19:50:08.978Z,101543.91
2022-09-02T19:52:34.013Z,101544.91
2022-09-02T19:54:58.633Z,101543.34
2022-09-02T19:57:22.839Z,101536.31
2022-09-02T19:59:47.899Z,101537.63
2022-09-02T20:02:11.558Z,101539.44
2022-09-02T20:04:35.351Z,101540.03
2022-09-02T20:06:59.862Z,101538.63
2022-09-02T20:09:24.016Z,101533.63
2022-09-02T20:11:47.846Z,101537.00
2022-09-02T20:14:11.502Z,101542.84
2022-09-02T20:16:36.595Z,101541.56
2022-09-02T20:19:00.375Z,101543.66
2022-09-02T20:21:27.390Z,101544.50
2022-09-02T20:23:51.132Z,101551.06
2022-09-02T20:26:26.783Z,101547.72
2022-09-02T20:29:08.765Z,101544.75
2022-09-02T20:31:52.620Z,101548.84
2022-09-02T20:34:34.263Z,101550.38
2022-09-02T20:37:09.450Z,101548.66
2022-09-02T20:39:51.094Z,101551.50
2022-09-02T20:42:40.096Z,101553.97
2022-09-02T20:45:09.903Z,101552.84
2022-09-02T20:47:50.667Z,101549.16
2022-09-02T20:50:30.759Z,101555.00
2022-09-02T20:53:13.051Z,101568.22
2022-09-02T20:55:45.643Z,101566.63
2022-09-02T20:58:22.430Z,101564.78
2022-09-02T21:01:04.612Z,101564.28
2022-09-02T21:03:41.130Z,101568.38
2022-09-02T21:06:05.919Z,101570.16
2022-09-02T21:08:35.483Z,101569.56
2022-09-02T21:11:02.376Z,101569.03
2022-09-02T21:13:40.066Z,101575.44
2022-09-02T21:16:11.285Z,101576.38
2022-09-02T21:18:44.289Z,101580.91
2022-09-02T21:21:24.395Z,101569.63
2022-09-02T21:23:53.563Z,101570.91
2022-09-02T21:26:26.097Z,101564.38
2022-09-02T21:29:01.398Z,101571.34
2022-09-02T21:31:37.960Z,101573.84
2022-09-02T21:34:09.492Z,101583.16
2022-09-02T21:36:34.719Z,101577.94
2022-09-02T21:39:05.251Z,101566.38
2022-09-02T21:41:33.331Z,101564.31
2022-09-02T21:44:09.675Z,101575.19
2022-09-02T21:46:50.239Z,101575.31
2022-09-02T21:49:35.247Z,101573.72
2022-09-02T21:52:10.471Z,101568.09
2022-09-02T21:54:50.788Z,101568.63
2022-09-02T21:57:42.489Z,101567.78
2022-09-02T22:00:10.206Z,101569.13
2022-09-02T22:02:57.919Z,101566.31
2022-09-02T22:05:49.518Z,101572.13
2022-09-02T22:08:23.791Z,101570.50
2022-09-02T22:11:01.974Z,101567.47
2022-09-02T22:13:25.672Z,101572.53
2022-09-02T22:16:01.323Z,101569.97
2022-09-02T22:18:35.817Z,101574.78
2022-09-02T22:21:06.131Z,101575.31
2022-09-02T22:23:31.972Z,101573.81
2022-09-02T22:25:57.516Z,101578.63
2022-09-02T22:28:31.542Z,101575.19
2022-09-02T22:31:00.268Z,101571.28
2022-09-02T22:33:30.893Z,101580.25
2022-09-02T22:36:01.109Z,101582.97
2022-09-02T22:38:33.330Z,101576.00
2022-09-02T22:41:02.250Z,101581.41
2022-09-02T22:43:41.573Z,101578.22
2022-09-02T22:46:29.001Z,101575.16
2022-09-02T22:49:15.462Z,101574.81
2022-09-02T22:52:07.877Z,101578.75
2022-09-02T22:54:32.089Z,101570.78
2022-09-02T22:57:07.099Z,101577.91
2022-09-02T22:59:49.124Z,101573.84
2022-09-02T23:02:22.227Z,101569.09
2022-09-02T23:05:04.946Z,101575.31
2022-09-02T23:07:31.325Z,101569.69
2022-09-02T23:09:59.211Z,101574.09
2022-09-02T23:12:31.686Z,101557.91
2022-09-02T23:15:18.025Z,101558.78
2022-09-02T23:17:57.962Z,101562.69
2022-09-02T23:20:28.536Z,101566.41
2022-09-02T23:23:14.172Z,101558.66
2022-09-02T23:26:09.925Z,101556.22
2022-09-02T23:28:54.350Z,101559.41
2022-09-02T23:31:26.030Z,101554.22
2022-09-02T23:34:04.080Z,101552.50
2022-09-02T23:36:41.391Z,101554.50
2022-09-02T23:39:18.805Z,101546.28
2022-09-02T23:41:42.923Z,101546.50
2022-09-02T23:44:08.763Z,101538.00
2022-09-02T23:46:48.576Z,101545.28
2022-09-02T23:49:22.845Z,101544.44
2022-09-02T23:51:57.294Z,101543.31
2022-09-02T23:54:50.607Z,101538.78
2022-09-02T23:57:34.621Z,101537.50
